Latest Weather Observations for Townsville

IDQ60801

Issued at 4:02 pm EST Wednesday 5 August 2015 (issued every 30 minutes, with the page automatically refreshed every 10 minutes)

About weather observations | Map of weather stations | Latest weather observations for QLD | Other Formats
Station Details ID: 032040 Name: TOWNSVILLE AERO Lat: -19.25 Lon: 146.77 Height: 4.34 m
Data from the previous 72 hours. | See also: Recent months at Townsville
Date/Time
EST
Temp
°C
App
Temp
°C
Dew
Point
Rel
Hum
%
Delta-T
°C
Wind Press
QNH
hPa
Press
MSL
hPa
Rain
since 9 am
mm
Dir
 
Spd
km/h
Gust
km/h
Spd
kts
Gust
kts
05/03:30pm 24.1 18.8 9.9 40 7.8 NE 28 32 15 17 1014.4 1014.4 0.0
05/03:00pm 24.7 19.1 10.2 40 8.0 ENE 30 33 16 18 1014.6 1014.6 0.0
05/02:30pm 25.1 19.9 8.8 35 8.8 ENE 26 33 14 18 1014.8 1014.8 0.0
05/02:00pm 25.4 20.5 8.5 34 9.1 ENE 24 32 13 17 1015.2 1015.2 0.0
05/01:30pm 25.4 21.0 6.6 30 9.8 NE 19 26 10 14 1015.8 1015.8 0.0
05/01:00pm 25.7 21.7 6.5 29 10.0 NE 17 24 9 13 1016.3 1016.3 0.0
05/12:30pm 25.9 23.3 6.2 28 10.2 ESE 9 15 5 8 1016.7 1016.7 0.0
05/12:00pm 25.6 21.3 5.4 27 10.3 WSW 17 26 9 14 1017.3 1017.3 0.0
05/11:30am 24.6 20.5 6.1 30 9.5 SSW 17 26 9 14 1017.8 1017.8 0.0
05/11:00am 23.5 17.8 5.1 30 9.2 SSW 24 30 13 16 1018.2 1018.2 0.0
05/10:30am 23.3 17.5 4.5 29 9.3 SSW 24 32 13 17 1018.6 1018.6 0.0
05/10:00am 23.1 17.2 3.8 28 9.4 SW 24 30 13 16 1018.7 1018.7 0.0
05/09:30am 22.0 16.8 3.8 30 8.8 SSW 20 26 11 14 1018.8 1018.8 0.0
05/09:00am 21.1 15.4 2.9 30 8.6 SW 22 26 12 14 1018.5 1018.5 0.0
05/08:30am 20.3 14.5 2.1 30 8.4 SW 22 28 12 15 1018.3 1018.3 0.0
05/08:00am 19.7 14.5 2.7 32 7.9 SSW 19 24 10 13 1018.0 1018.0 0.0
05/07:30am 19.1 13.9 2.7 33 7.6 SSW 19 24 10 13 1017.6 1017.6 0.0
05/07:00am 18.3 13.5 2.6 35 7.2 SSW 17 20 9 11 1017.4 1017.4 0.0
05/06:30am 17.7 13.3 2.6 36 6.9 SSW 15 19 8 10 1016.9 1016.9 0.0
05/06:00am 17.1 12.8 3.5 40 6.3 SSW 15 17 8 9 1016.6 1016.6 0.0
05/05:30am 16.6 12.8 5.6 48 5.3 SSW 15 19 8 10 1016.2 1016.2 0.0
05/05:00am 17.0 13.1 6.9 51 5.0 SSW 17 20 9 11 1015.8 1015.8 0.0
05/04:30am 16.7 14.2 9.8 63 3.6 SSW 13 17 7 9 1015.8 1015.8 0.0
05/04:00am 15.8 15.3 13.7 87 1.2 SSW 9 11 5 6 1015.9 1015.9 0.0
05/03:30am 14.9 15.4 14.0 94 0.5 SW 4 9 2 5 1015.9 1015.9 0.0
05/03:00am 16.3 17.3 15.3 94 0.6 SSE 4 9 2 5 1015.9 1015.9 0.0
05/02:30am 15.3 15.9 14.2 93 0.6 SW 4 13 2 7 1016.0 1016.0 0.0
05/02:00am 15.9 17.3 14.3 90 0.9 CALM 0 0 0 0 1016.0 1016.0 0.0
05/01:30am 16.2 17.8 14.8 91 0.8 CALM 0 0 0 0 1016.2 1016.2 0.0
05/01:00am 16.5 16.5 15.1 91 0.8 NNW 9 11 5 6 1016.1 1016.1 0.0
05/12:30am 16.4 17.6 14.8 90 0.9 SW 2 7 1 4 1016.2 1016.2 0.0
05/12:00am 17.3 19.4 16.3 94 0.6 CALM 0 0 0 0 1016.2 1016.2 0.0
 
Date/Time
EST
Temp
°C
App
Temp
°C
Dew
Point
Rel
Hum
%
Delta-T
°C
Wind Press
QNH
hPa
Press
MSL
hPa
Rain
since 9 am
mm
Dir
 
Spd
km/h
Gust
km/h
Spd
kts
Gust
kts
04/11:30pm 16.3 16.5 14.7 90 0.9 SSW 7 9 4 5 1016.2 1016.2 0.0
04/11:00pm 18.5 20.7 16.5 88 1.2 CALM 0 0 0 0 1016.2 1016.2 0.0
04/10:30pm 19.5 20.6 17.2 86 1.4 SE 7 7 4 4 1016.2 1016.2 0.0
04/10:00pm 19.9 20.6 17.1 84 1.7 SE 9 13 5 7 1016.1 1016.1 0.0
04/09:30pm 19.9 20.6 17.1 84 1.7 SE 9 11 5 6 1016.0 1016.0 0.0
04/09:00pm 20.0 22.2 16.5 80 2.1 CALM 0 0 0 0 1015.9 1015.9 0.0
04/08:30pm 20.3 22.5 17.4 83 1.8 ESE 2 7 1 4 1015.8 1015.8 0.0
04/08:00pm 19.8 21.6 16.5 81 2.0 ESE 2 9 1 5 1015.5 1015.5 0.0
04/07:30pm 21.2 23.0 17.5 79 2.3 ESE 4 9 2 5 1015.3 1015.3 0.0
04/07:00pm 21.1 22.2 17.0 77 2.5 ESE 7 9 4 5 1015.0 1015.0 0.0
04/06:30pm 21.6 22.0 17.2 76 2.7 E 11 13 6 7 1014.8 1014.8 0.0
04/06:00pm 22.4 22.3 17.0 71 3.3 ENE 13 19 7 10 1014.6 1014.6 0.0
04/05:30pm 23.2 21.3 16.8 67 3.9 ENE 22 28 12 15 1014.0 1014.0 0.0
04/05:00pm 24.2 21.6 14.8 55 5.6 ENE 22 28 12 15 1013.8 1013.8 0.0
04/04:30pm 25.3 21.5 12.4 44 7.4 ENE 24 28 13 15 1013.6 1013.6 0.0
04/04:00pm 25.0 21.5 13.4 48 6.8 ENE 24 30 13 16 1013.5 1013.5 0.0
04/03:30pm 24.6 21.3 16.1 59 5.2 ENE 28 33 15 18 1013.6 1013.6 0.0
04/03:00pm 24.6 21.9 16.6 61 4.9 ENE 26 32 14 17 1013.9 1013.9 0.0
04/02:30pm 26.4 23.5 15.2 50 6.8 NE 24 32 13 17 1014.1 1014.1 0.0
04/02:00pm 27.2 24.8 14.3 45 7.7 NE 20 28 11 15 1014.5 1014.5 0.0
04/01:30pm 27.1 24.7 13.8 44 7.9 NE 19 22 10 12 1015.0 1015.0 0.0
04/01:00pm 26.8 24.1 12.9 42 8.1 NE 19 24 10 13 1015.5 1015.5 0.0
04/12:30pm 26.7 23.7 12.1 40 8.4 NE 19 26 10 14 1016.1 1016.1 0.0
04/12:00pm 26.4 23.9 12.4 41 8.1 NE 17 20 9 11 1016.6 1016.6 0.0
04/11:30am 26.1 23.8 12.9 44 7.7 NE 17 20 9 11 1017.1 1017.1 0.0
04/11:00am 25.7 24.6 12.1 42 7.8 SSE 9 13 5 7 1017.5 1017.5 0.0
04/10:30am 24.6 23.9 15.3 56 5.6 NE 13 19 7 10 1017.9 1017.9 0.0
04/10:00am 23.9 25.4 15.8 60 4.9 NNE 2 9 1 5 1018.1 1018.1 0.0
04/09:30am 22.6 24.5 16.7 69 3.6 N 2 9 1 5 1018.0 1018.0 0.0
04/09:00am 22.2 23.8 17.0 72 3.2 N 4 9 2 5 1017.9 1017.9 0.0
04/08:30am 20.0 21.5 15.8 77 2.5 NW 2 7 1 4 1017.8 1017.8 0.0
04/08:00am 18.4 19.5 15.7 84 1.6 NW 4 7 2 4 1017.6 1017.6 0.0
04/07:30am 16.6 18.4 15.6 94 0.6 CALM 0 0 0 0 1017.4 1017.4 0.0
04/07:00am 14.6 15.8 13.7 94 0.5 CALM 0 0 0 0 1017.2 1017.2 0.0
04/06:30am 14.1 15.2 13.4 96 0.4 CALM 0 0 0 0 1016.9 1016.9 0.0
04/06:00am 14.1 15.2 13.6 97 0.3 CALM 0 0 0 0 1016.6 1016.6 0.0
04/05:30am 14.2 13.7 13.7 97 0.3 NNW 9 11 5 6 1016.3 1016.3 0.0
04/05:00am 14.9 15.2 14.4 97 0.3 SW 6 9 3 5 1016.3 1016.3 0.0
04/04:30am 16.4 15.7 15.5 94 0.5 S 13 17 7 9 1016.0 1016.0 0.0
04/04:00am 16.4 18.3 15.7 96 0.4 CALM 0 0 0 0 1015.7 1015.7 0.0
04/03:44am 15.6 17.3 15.1 97 0.3 CALM 0 0 0 0 1015.6 1015.6 0.0
04/03:34am 15.9 17.7 15.6 98 0.2 CALM 0 0 0 0 1015.6 1015.6 0.0
04/03:30am 15.7 17.5 15.5 99 0.1 CALM 0 0 0 0 1015.6 1015.6 0.0
04/03:22am 15.4 17.1 15.2 99 0.1 CALM 0 0 0 0 1015.6 1015.6 0.0
04/03:02am 14.8 16.3 14.6 99 0.1 CALM 0 0 0 0 1015.7 1015.7 0.0
04/03:00am 14.8 16.3 14.6 99 0.1 CALM 0 0 0 0 1015.7 1015.7 0.0
04/02:30am 14.7 16.2 14.7 100 0.0 CALM 0 0 0 0 1015.7 1015.7 0.0
04/02:19am 15.1 16.7 14.9 99 0.1 CALM 0 0 0 0 1015.7 1015.7 0.0
04/02:04am 15.0 16.6 15.0 100 0.0 CALM 0 0 0 0 1015.9 1015.9 0.0
04/02:00am 15.3 16.9 14.8 97 0.3 CALM 0 0 0 0 1015.9 1015.9 0.0
04/01:30am 15.3 16.9 15.0 98 0.2 CALM 0 0 0 0 1016.0 1016.0 0.0
04/01:00am 14.9 16.3 14.4 97 0.3 CALM 0 0 0 0 1016.3 1016.3 0.0
04/12:47am 15.4 17.0 14.9 97 0.3 CALM 0 0 0 0 1016.4 1016.4 0.0
04/12:46am 15.8 17.6 15.5 98 0.2 CALM 0 0 0 0 1016.4 1016.4 0.0
04/12:45am 16.1 17.9 15.6 97 0.3 CALM 0 0 0 0 1016.4 1016.4 0.0
04/12:35am 16.9 19.0 16.2 96 0.4 CALM 0 0 0 0 1016.5 1016.5 0.0
04/12:30am 16.6 18.6 15.9 96 0.4 CALM 0 0 0 0 1016.5 1016.5 0.0
04/12:13am 16.2 18.0 15.5 96 0.4 CALM 0 0 0 0 1016.7 1016.7 0.0
04/12:11am 16.2 18.0 15.5 96 0.4 CALM 0 0 0 0 1016.7 1016.7 0.0
04/12:00am 16.0 17.7 15.1 94 0.5 CALM 0 0 0 0 1016.8 1016.8 0.0
 
Date/Time
EST
Temp
°C
App
Temp
°C
Dew
Point
Rel
Hum
%
Delta-T
°C
Wind Press
QNH
hPa
Press
MSL
hPa
Rain
since 9 am
mm
Dir
 
Spd
km/h
Gust
km/h
Spd
kts
Gust
kts
03/11:30pm 17.1 18.9 15.6 91 0.9 CALM 0 0 0 0 1017.1 1017.1 0.0
03/11:00pm 19.1 21.6 17.3 89 1.1 CALM 0 0 0 0 1017.4 1017.4 0.0
03/10:30pm 17.9 20.2 16.7 93 0.7 CALM 0 0 0 0 1017.6 1017.6 0.0
03/10:00pm 18.3 20.5 16.6 90 1.0 CALM 0 0 0 0 1017.5 1017.5 0.0
03/09:30pm 18.8 21.2 17.0 89 1.1 CALM 0 0 0 0 1017.7 1017.7 0.0
03/09:00pm 18.9 21.3 17.1 89 1.1 CALM 0 0 0 0 1017.8 1017.8 0.0
03/08:30pm 19.3 22.0 17.7 90 1.0 CALM 0 0 0 0 1017.7 1017.7 0.0
03/08:00pm 19.7 22.3 17.6 88 1.3 CALM 0 0 0 0 1017.5 1017.5 0.0
03/07:30pm 19.9 22.6 17.8 88 1.3 CALM 0 0 0 0 1017.3 1017.3 0.0
03/07:00pm 20.1 22.5 17.0 82 1.9 CALM 0 0 0 0 1017.1 1017.1 0.0
03/06:30pm 20.5 22.2 16.3 77 2.5 NNW 2 7 1 4 1016.9 1016.9 0.0
03/06:00pm 22.1 22.4 16.9 72 3.2 N 11 13 6 7 1016.9 1016.9 0.0
03/05:30pm 23.3 22.8 16.0 63 4.4 N 13 17 7 9 1016.7 1016.7 0.0
03/05:00pm 24.5 24.0 14.8 54 5.8 NNE 11 15 6 8 1016.5 1016.5 0.0
03/04:30pm 24.9 23.9 14.5 52 6.2 N 13 19 7 10 1016.4 1016.4 0.0
03/04:00pm 25.2 24.3 14.8 52 6.2 NNE 13 19 7 10 1016.4 1016.4 0.0
03/03:30pm 25.6 24.8 15.1 52 6.3 NNE 13 17 7 9 1016.5 1016.5 0.0
03/03:00pm 25.7 24.1 14.0 48 6.9 NNE 15 24 8 13 1016.6 1016.6 0.0
03/02:30pm 25.8 24.7 14.4 49 6.8 NNE 13 22 7 12 1016.8 1016.8 0.0
03/02:00pm 25.7 24.5 16.1 55 5.9 NE 17 24 9 13 1017.2 1017.2 0.0
03/01:30pm 25.7 24.7 16.6 57 5.6 ENE 17 26 9 14 1017.6 1017.6 0.0
03/01:00pm 24.8 23.8 16.7 60 5.0 ENE 17 24 9 13 1018.0 1018.0 0.0
03/12:30pm 24.4 23.0 16.9 63 4.6 NE 20 26 11 14 1018.4 1018.4 0.0
03/12:00pm 24.8 23.5 16.7 60 5.0 ENE 19 26 10 14 1018.7 1018.7 0.0
03/11:30am 24.5 23.5 16.7 61 4.8 ENE 17 22 9 12 1019.2 1019.2 0.0
03/11:00am 24.5 23.1 16.5 61 4.9 ENE 19 24 10 13 1019.6 1019.6 0.0
03/10:30am 24.3 23.4 15.9 59 5.1 ENE 15 20 8 11 1019.9 1019.9 0.0
03/10:00am 24.2 24.3 16.5 62 4.7 NE 11 17 6 9 1020.2 1020.2 0.0
03/09:30am 23.0 22.8 16.6 67 3.9 SE 13 15 7 8 1020.3 1020.3 0.0
03/09:00am 22.2 22.2 17.2 73 3.1 ESE 13 19 7 10 1020.2 1020.2 0.0
03/08:30am 20.7 22.7 16.9 79 2.3 WNW 2 11 1 6 1020.0 1020.0 0.0
03/08:00am 17.6 19.6 15.9 90 1.0 CALM 0 0 0 0 1019.8 1019.8 0.0
03/07:30am 15.5 17.0 14.6 94 0.5 CALM 0 0 0 0 1019.5 1019.5 0.0
03/07:00am 14.8 16.2 14.3 97 0.3 CALM 0 0 0 0 1019.1 1019.1 0.0
03/06:30am 13.9 15.0 13.4 97 0.3 CALM 0 0 0 0 1018.8 1018.8 0.0
03/06:00am 14.7 16.1 14.3 97 0.2 CALM 0 0 0 0 1018.5 1018.5 0.0
03/05:30am 15.4 17.1 15.1 98 0.2 CALM 0 0 0 0 1018.4 1018.4 0.0
03/05:00am 14.6 15.9 14.1 97 0.3 CALM 0 0 0 0 1018.3 1018.3 0.0
03/04:44am 14.2 15.4 13.8 97 0.2 CALM 0 0 0 0 1018.2 1018.2 0.0
03/04:30am 14.2 15.4 13.8 97 0.2 CALM 0 0 0 0 1018.3 1018.3 0.0
03/04:05am 14.1 15.2 13.4 96 0.4 CALM 0 0 0 0 1018.2 1018.2 0.0
03/04:00am 14.3 15.3 13.2 93 0.6 CALM 0 0 0 0 1018.1 1018.1 0.0
03/03:30am 15.5 17.1 15.0 97 0.3 CALM 0 0 0 0 1018.1 1018.1 0.0
03/03:00am 15.3 16.9 14.8 97 0.3 CALM 0 0 0 0 1018.4 1018.4 0.0
03/02:30am 15.3 15.5 14.8 97 0.3 NW 7 9 4 5 1018.4 1018.4 0.0
03/02:00am 16.1 16.8 15.6 97 0.3 S 6 9 3 5 1018.8 1018.8 0.0
03/01:30am 15.3 16.8 14.6 96 0.4 CALM 0 0 0 0 1019.1 1019.1 0.0
03/01:05am 15.4 17.0 14.9 97 0.3 CALM 0 0 0 0 1019.2 1019.2 0.0
03/01:00am 15.7 17.3 15.0 96 0.4 CALM 0 0 0 0 1019.2 1019.2 0.0
03/12:47am 15.9 17.6 15.2 96 0.4 CALM 0 0 0 0 1019.3 1019.3 0.0
03/12:30am 17.1 19.0 15.7 91 0.8 CALM 0 2 0 1 1019.5 1019.5 0.0
03/12:00am 17.0 18.9 15.8 93 0.7 CALM 0 0 0 0 1019.6 1019.6 0.0
 
Date/Time
EST
Temp
°C
App
Temp
°C
Dew
Point
Rel
Hum
%
Delta-T
°C
Wind Press
QNH
hPa
Press
MSL
hPa
Rain
since 9 am
mm
Dir
 
Spd
km/h
Gust
km/h
Spd
kts
Gust
kts
02/11:30pm 18.5 19.5 16.8 90 1.0 S 7 9 4 5 1019.8 1019.8 0.0
02/11:00pm 17.7 19.7 16.0 90 1.0 CALM 0 6 0 3 1020.0 1020.0 0.0
02/10:30pm 19.5 19.9 17.2 86 1.4 SE 11 13 6 7 1020.0 1020.0 0.0
02/10:00pm 20.0 20.4 17.2 84 1.7 SE 11 15 6 8 1020.0 1020.0 0.0
02/09:30pm 19.6 20.2 16.8 84 1.7 E 9 11 5 6 1019.8 1019.8 0.0
02/09:00pm 21.0 22.5 18.1 83 1.8 NNE 7 9 4 5 1019.7 1019.7 0.0
02/08:30pm 21.1 21.8 18.0 82 1.9 NNE 11 11 6 6 1019.5 1019.5 0.0
02/08:00pm 20.3 21.1 17.2 82 1.9 ENE 9 11 5 6 1019.3 1019.3 0.0
02/07:30pm 21.2 21.4 17.6 80 2.2 ENE 13 15 7 8 1019.2 1019.2 0.0
02/07:00pm 21.6 22.3 17.9 79 2.3 ENE 11 13 6 7 1019.1 1019.1 0.0
02/06:30pm 21.9 22.2 17.9 78 2.5 ENE 13 17 7 9 1018.9 1018.9 0.0
02/06:00pm 22.2 21.3 17.7 75 2.8 ENE 19 24 10 13 1018.8 1018.8 0.0
02/05:30pm 23.1 21.7 17.1 69 3.7 ENE 20 26 11 14 1018.6 1018.6 0.0
02/05:00pm 23.6 22.2 16.9 66 4.1 ENE 20 28 11 15 1018.5 1018.5 0.0
02/04:30pm 24.3 22.0 16.6 62 4.7 ENE 24 30 13 16 1018.3 1018.3 0.0

Other Formats:

Comma delimited format used in spreadsheet applications
http://www.bom.gov.au/fwo/IDQ60801/IDQ60801.94294.axf

JavaScript Object Notation format (JSON) in row-major order
http://www.bom.gov.au/fwo/IDQ60801/IDQ60801.94294.json